HOM weather

Homer Airport
Homer, Alaska, United States

Public forecast

Using degrees Fahrenheit for public forecast. Weather courtesy of forecast.io.

METAR (pilot weather report)

Retrieved 2019/05/25 21:53 UTC (54 minutes ago):

PAHO 252153Z VRB05KT 10SM OVC055 11/04 A3000 RMK AO2 SLP159 T01110039

TAF (pilot weather forecast)

Retrieved 2019/05/25 18:27 UTC (4 hours ago):

TAF PAHO 251725Z 2518/2618 08006KT P6SM VCSH SCT040 OVC060 FM252000 08010KT P6SM -RA OVC035 FM261200 VRB04KT P6SM VCSH SCT030 OVC050